Latest Weather Observations for Esperance

IDW60801

Issued at 3:34 pm WST Wednesday 18 January 2017 (issued every 30 minutes, with the page automatically refreshed every 10 minutes)

About weather observations | Map of weather stations | Latest weather observations for WA | Other Formats
Station Details ID: 009789 Name: ESPERANCE Lat: -33.83 Lon: 121.89 Height: 25.0 m
Data from the previous 72 hours. | See also: Recent months at Esperance
Date/Time
WST
Temp
°C
App
Temp
°C
Dew
Point
°C
Rel
Hum
%
Delta-T
°C
Wind Press
QNH
hPa
Press
MSL
hPa
Rain since
9am
mm
Dir  Spd
km/h
Gust
km/h
Spd
kts
Gust
kts
18/03:30pm 26.2 22.4 11.0 38 8.6 NNE 22 32 12 17 1010.6 1010.5 0.0
18/03:00pm 26.2 21.7 10.0 36 9.0 NNE 24 35 13 19 1011.0 1010.9 0.0
18/02:30pm 26.8 22.6 9.7 34 9.5 NE 22 32 12 17 1011.4 1011.3 0.0
18/02:00pm 23.7 19.9 12.3 48 6.5 SE 24 39 13 21 1011.7 1011.6 0.0
18/01:30pm 22.9 18.0 12.4 51 6.0 SE 30 48 16 26 1012.3 1012.2 0.0
18/01:00pm 23.9 19.1 11.7 46 6.9 SE 28 43 15 23 1012.6 1012.6 0.0
18/12:30pm 23.6 19.0 11.1 45 7.0 SE 26 37 14 20 1013.0 1013.0 0.0
18/12:29pm 23.7 18.8 11.4 46 6.9 SE 28 39 15 21 1013.0 1013.0 0.0
18/12:00pm 25.9 22.8 7.1 30 9.9 ENE 13 20 7 11 1013.9 1013.9 0.0
18/11:30am 24.7 21.1 6.8 31 9.3 NE 15 26 8 14 1014.6 1014.6 0.0
18/11:00am 23.8 19.3 6.2 32 9.0 NE 19 32 10 17 1015.1 1015.1 0.0
18/10:30am 23.0 18.2 5.8 33 8.7 ENE 20 33 11 18 1015.8 1015.7 0.0
18/10:00am 22.2 18.0 5.9 34 8.2 ENE 17 28 9 15 1016.4 1016.3 0.0
18/09:30am 21.6 17.7 6.9 38 7.5 ENE 17 30 9 16 1016.8 1016.7 0.0
18/09:00am 21.1 17.2 7.3 41 7.1 ENE 17 32 9 17 1017.5 1017.4 0.0
18/08:30am 20.0 16.1 7.2 43 6.5 ENE 17 28 9 15 1017.7 1017.6 0.0
18/08:00am 19.4 15.3 6.4 42 6.5 ENE 17 24 9 13 1018.0 1017.9 0.0
18/07:30am 18.8 15.4 5.7 42 6.4 E 13 22 7 12 1018.2 1018.1 0.0
18/07:00am 17.7 13.0 5.2 43 6.0 ENE 19 26 10 14 1018.3 1018.2 0.0
18/06:30am 16.8 13.6 6.9 52 4.9 ENE 13 22 7 12 1018.4 1018.3 0.0
18/06:00am 15.3 12.2 7.2 58 4.0 NE 13 20 7 11 1018.2 1018.1 0.0
18/05:30am 14.6 12.2 6.8 59 3.8 ENE 9 15 5 8 1018.2 1018.1 0.0
18/05:00am 14.9 12.0 6.7 58 4.0 NE 11 13 6 7 1018.2 1018.1 0.0
18/04:30am 15.5 13.4 6.7 55 4.3 ENE 7 11 4 6 1018.0 1017.9 0.0
18/04:00am 15.9 13.0 6.7 54 4.5 ENE 11 19 6 10 1018.0 1017.9 0.0
18/03:30am 16.1 13.2 6.5 53 4.7 E 11 19 6 10 1018.0 1017.9 0.0
18/03:00am 15.8 12.9 8.0 60 3.9 NE 13 19 7 10 1017.7 1017.6 0.0
18/02:30am 16.0 13.8 9.2 64 3.5 NE 11 19 6 10 1017.6 1017.5 0.0
18/02:00am 16.3 14.4 9.1 62 3.7 E 9 13 5 7 1017.7 1017.6 0.0
18/01:30am 16.1 14.4 9.8 66 3.3 E 9 15 5 8 1018.0 1017.9 0.0
18/01:00am 16.2 14.5 9.9 66 3.3 E 9 15 5 8 1018.3 1018.2 0.0
18/12:30am 16.2 14.9 10.1 67 3.2 E 7 11 4 6 1018.6 1018.5 0.0
18/12:00am 16.2 14.9 10.1 67 3.2 ENE 7 11 4 6 1018.9 1018.8 0.0
 
Date/Time
WST
Temp
°C
App
Temp
°C
Dew
Point
°C
Rel
Hum
%
Delta-T
°C
Wind Press
QNH
hPa
Press
MSL
hPa
Rain since
9am
mm
Dir  Spd
km/h
Gust
km/h
Spd
kts
Gust
kts
17/11:30pm 16.4 14.3 9.9 65 3.4 NE 11 15 6 8 1018.9 1018.8 0.0
17/11:00pm 17.3 14.0 8.0 54 4.7 ESE 15 22 8 12 1019.0 1018.9 0.0
17/10:30pm 17.0 14.4 9.5 61 3.9 ESE 13 20 7 11 1019.1 1019.0 0.0
17/10:00pm 16.7 14.2 9.8 63 3.6 E 13 19 7 10 1019.3 1019.2 0.0
17/09:30pm 17.1 13.2 9.4 60 4.0 ESE 20 30 11 16 1019.3 1019.2 0.0
17/09:00pm 16.9 13.0 9.4 61 3.9 ESE 20 30 11 16 1019.4 1019.3 0.0
17/08:30pm 16.8 13.1 9.5 62 3.8 ESE 19 26 10 14 1019.2 1019.1 0.0
17/08:00pm 16.9 12.0 8.5 57 4.3 ESE 24 32 13 17 1019.2 1019.1 0.0
17/07:30pm 17.3 12.2 7.8 53 4.8 ESE 24 30 13 16 1018.7 1018.6 0.0
17/07:00pm 17.3 12.4 8.5 56 4.5 SE 24 33 13 18 1018.4 1018.3 0.0
17/06:30pm 17.6 12.8 8.9 56 4.5 SE 24 33 13 18 1018.0 1017.9 0.0
17/06:00pm 18.2 13.3 9.9 58 4.4 SE 26 35 14 19 1018.0 1017.9 0.0
17/05:30pm 18.3 12.9 9.6 57 4.6 SE 28 37 15 20 1017.5 1017.4 0.0
17/05:00pm 18.8 13.7 9.3 54 5.0 SSE 26 33 14 18 1017.4 1017.3 0.0
17/04:30pm 18.7 13.1 8.7 52 5.2 SSE 28 35 15 19 1017.2 1017.1 0.0
17/04:00pm 19.0 13.3 8.4 50 5.5 SSE 28 37 15 20 1017.3 1017.2 0.0
17/03:30pm 19.2 14.0 8.9 51 5.4 SSE 26 35 14 19 1017.3 1017.2 0.0
17/03:00pm 19.8 13.7 8.2 47 6.0 SSE 30 41 16 22 1017.1 1017.0 0.0
17/02:30pm 19.1 13.2 7.5 47 5.9 SSE 28 37 15 20 1017.1 1017.0 0.0
17/02:00pm 19.4 13.7 6.9 44 6.3 SSE 26 35 14 19 1017.3 1017.2 0.0
17/01:30pm 19.0 12.6 7.1 46 6.0 SE 30 41 16 22 1017.4 1017.3 0.0
17/01:00pm 19.9 14.0 7.6 45 6.3 SE 28 35 15 19 1017.2 1017.1 0.0
17/12:30pm 19.3 13.8 7.5 46 6.0 SSE 26 37 14 20 1017.2 1017.1 0.0
17/12:00pm 19.7 13.9 7.8 46 6.1 SSE 28 35 15 19 1017.4 1017.3 0.0
17/11:30am 18.8 13.0 7.8 48 5.6 SE 28 35 15 19 1017.6 1017.5 0.0
17/11:00am 18.9 13.8 7.7 48 5.7 SE 24 35 13 19 1017.5 1017.4 0.0
17/10:30am 18.8 13.7 7.8 48 5.6 SSE 24 33 13 18 1017.4 1017.3 0.0
17/10:00am 19.1 13.7 8.2 49 5.6 SSE 26 37 14 20 1017.2 1017.1 0.0
17/09:30am 18.7 13.4 8.4 51 5.3 SSE 26 35 14 19 1017.0 1016.9 0.0
17/09:00am 18.3 12.8 9.1 55 4.8 SSE 28 39 15 21 1016.8 1016.7 2.2
17/08:30am 17.6 12.2 9.6 59 4.2 SSE 28 35 15 19 1016.7 1016.6 2.2
17/08:00am 18.2 13.0 10.3 60 4.2 SSE 28 41 15 22 1016.6 1016.5 2.2
17/07:30am 18.2 13.9 10.8 62 4.0 SSE 24 35 13 19 1016.5 1016.4 2.2
17/07:00am 17.3 12.6 10.6 64 3.6 SSE 26 35 14 19 1016.1 1016.0 2.2
17/06:30am 17.0 12.9 11.3 69 3.1 SSE 24 33 13 18 1015.8 1015.7 2.2
17/06:00am 17.0 12.5 11.3 69 3.1 SSE 26 33 14 18 1015.3 1015.3 2.2
17/05:30am 16.9 13.1 11.1 68 3.1 SSE 22 30 12 16 1015.2 1015.2 2.2
17/05:00am 17.0 12.7 10.8 67 3.3 SSE 24 32 13 17 1014.7 1014.7 2.2
17/04:30am 16.9 13.1 11.2 69 3.1 SSE 22 32 12 17 1014.3 1014.3 2.2
17/04:00am 16.7 13.4 11.5 71 2.8 SSE 20 28 11 15 1014.1 1014.1 2.2
17/03:30am 16.6 13.4 12.0 74 2.5 SSE 20 28 11 15 1013.7 1013.7 2.2
17/03:00am 16.7 13.5 11.1 69 3.0 SSE 19 28 10 15 1013.3 1013.3 2.2
17/02:30am 16.7 12.9 11.3 70 2.9 SSE 22 28 12 15 1013.1 1013.1 2.2
17/02:00am 16.5 13.8 13.5 82 1.7 SSE 20 28 11 15 1013.0 1013.0 2.2
17/01:30am 16.3 13.9 14.4 88 1.1 SSE 20 28 11 15 1013.1 1013.1 2.0
17/01:23am 16.3 14.2 14.6 90 1.0 SSE 19 24 10 13 1013.2 1013.2 2.0
17/01:03am 16.5 14.6 14.2 86 1.3 SE 17 20 9 11 1013.3 1013.3 1.4
17/01:00am 16.5 14.5 14.0 85 1.4 SE 17 20 9 11 1013.2 1013.2 1.2
17/12:30am 16.8 15.3 14.2 85 1.5 SSE 15 20 8 11 1013.5 1013.5 0.6
17/12:00am 16.9 15.0 14.3 85 1.5 SSE 17 28 9 15 1013.1 1013.1 0.2
 
Date/Time
WST
Temp
°C
App
Temp
°C
Dew
Point
°C
Rel
Hum
%
Delta-T
°C
Wind Press
QNH
hPa
Press
MSL
hPa
Rain since
9am
mm
Dir  Spd
km/h
Gust
km/h
Spd
kts
Gust
kts
16/11:30pm 17.3 14.8 14.0 81 1.9 SSE 20 26 11 14 1013.4 1013.4 0.0
16/11:00pm 17.2 14.6 13.7 80 2.0 SSE 20 28 11 15 1013.3 1013.3 0.0
16/10:30pm 17.9 15.6 13.1 73 2.7 SSE 17 24 9 13 1013.7 1013.7 0.0
16/10:00pm 17.9 14.9 12.7 71 2.9 SSE 20 26 11 14 1013.7 1013.7 0.0
16/09:30pm 17.9 15.6 12.9 72 2.8 SSE 17 28 9 15 1013.6 1013.6 0.0
16/09:00pm 17.8 14.8 12.6 71 2.9 SSE 20 28 11 15 1013.5 1013.5 0.0
16/08:30pm 17.9 15.0 12.3 70 3.1 SSE 19 26 10 14 1013.4 1013.4 0.0
16/08:00pm 18.0 13.9 11.6 66 3.5 SSE 24 37 13 20 1013.0 1013.0 0.0
16/07:30pm 18.0 14.4 12.0 68 3.3 S 22 33 12 18 1012.5 1012.5 0.0
16/07:00pm 18.2 15.0 12.0 67 3.4 S 20 32 11 17 1012.4 1012.3 0.0
16/06:30pm 18.3 14.3 13.0 71 3.0 S 26 33 14 18 1011.7 1011.6 0.0
16/06:00pm 18.5 14.9 13.0 70 3.1 S 24 35 13 19 1011.8 1011.7 0.0
16/05:30pm 18.9 14.6 13.3 70 3.2 S 28 37 15 20 1011.2 1011.1 0.0
16/05:00pm 18.9 16.1 13.3 70 3.2 S 20 33 11 18 1010.8 1010.7 0.0
16/04:30pm 18.9 15.2 12.7 67 3.5 S 24 35 13 19 1010.8 1010.7 0.0
16/04:00pm 19.1 15.5 12.9 67 3.5 S 24 35 13 19 1010.7 1010.6 0.0
16/03:30pm 20.2 17.0 13.2 64 4.0 S 22 37 12 20 1010.3 1010.2 0.0
16/03:00pm 19.0 15.1 13.2 69 3.3 S 26 35 14 19 1010.1 1010.0 0.0
16/02:30pm 19.2 15.8 13.8 71 3.1 S 24 35 13 19 1009.9 1009.8 0.0
16/02:00pm 18.8 15.5 13.9 73 2.8 S 24 35 13 19 1009.9 1009.8 0.0
16/01:30pm 19.3 15.9 13.7 70 3.2 SSE 24 33 13 18 1009.6 1009.5 0.0
16/01:00pm 19.2 15.7 13.4 69 3.3 S 24 33 13 18 1009.5 1009.4 0.0
16/12:30pm 19.2 15.4 13.6 70 3.2 S 26 37 14 20 1009.7 1009.6 0.0
16/12:00pm 19.2 15.4 13.6 70 3.2 S 26 35 14 19 1009.4 1009.3 0.0
16/11:30am 19.5 15.3 13.6 68 3.4 S 28 39 15 21 1009.2 1009.1 0.0
16/11:00am 19.5 16.5 13.8 69 3.3 S 22 32 12 17 1009.3 1009.2 0.0
16/10:30am 19.8 16.3 13.3 66 3.7 S 24 33 13 18 1009.3 1009.2 0.0
16/10:00am 19.7 16.2 13.4 67 3.6 S 24 35 13 19 1009.1 1009.0 0.0
16/09:30am 19.3 15.7 12.9 66 3.6 S 24 35 13 19 1009.1 1009.0 0.0
16/09:00am 20.1 16.7 13.7 66 3.7 S 24 35 13 19 1009.0 1008.9 0.0
16/08:30am 20.2 17.2 13.6 66 3.8 SSW 22 33 12 18 1009.2 1009.1 0.0
16/08:00am 18.6 16.0 13.1 70 3.1 SSW 19 28 10 15 1009.4 1009.3 0.0
16/07:49am 19.0 17.4 13.8 72 3.0 S 15 24 8 13 1009.3 1009.2 0.0
16/07:30am 18.3 16.2 13.7 74 2.6 SSW 17 28 9 15 1009.1 1009.0 0.0
16/07:00am 17.9 15.5 13.9 77 2.3 SW 19 28 10 15 1008.9 1008.8 0.0
16/06:30am 17.9 16.1 14.4 80 2.0 SW 17 22 9 12 1008.8 1008.7 0.0
16/06:00am 17.9 16.9 14.6 81 1.9 SW 13 26 7 14 1008.4 1008.3 0.0
16/05:30am 17.7 16.9 15.0 84 1.6 SW 13 20 7 11 1007.9 1007.8 0.0
16/05:00am 17.6 17.0 15.7 89 1.1 SW 13 20 7 11 1007.7 1007.6 0.0
16/04:30am 17.6 17.0 15.6 88 1.2 SW 13 22 7 12 1007.4 1007.3 0.0
16/04:00am 17.7 16.8 15.8 89 1.1 WSW 15 19 8 10 1007.4 1007.3 0.0
16/03:30am 17.8 16.5 15.9 89 1.1 WSW 17 26 9 14 1007.1 1007.0 0.0
16/03:00am 18.0 17.2 16.2 89 1.1 WSW 15 22 8 12 1006.9 1006.8 0.0
16/02:30am 18.2 17.0 16.2 88 1.2 SW 17 24 9 13 1006.8 1006.7 0.0
16/02:00am 18.3 17.6 16.5 89 1.1 SW 15 24 8 13 1006.7 1006.6 0.0
16/01:49am 18.4 17.4 16.6 89 1.1 SW 17 28 9 15 1006.6 1006.5 0.0
16/01:30am 18.6 18.1 16.8 89 1.1 WSW 15 26 8 14 1006.5 1006.4 0.0
16/01:08am 18.8 18.3 17.0 89 1.1 SW 15 22 8 12 1006.3 1006.2 0.0
16/01:00am 18.8 18.3 17.0 89 1.1 WSW 15 22 8 12 1006.3 1006.2 0.0
16/12:50am 18.9 18.8 16.9 88 1.2 WSW 13 20 7 11 1006.3 1006.2 0.0
16/12:30am 19.2 18.7 16.9 86 1.4 SW 15 22 8 12 1006.3 1006.2 0.0
16/12:00am 19.9 18.5 16.6 81 2.0 SW 19 26 10 14 1006.1 1006.0 0.0
 
Date/Time
WST
Temp
°C
App
Temp
°C
Dew
Point
°C
Rel
Hum
%
Delta-T
°C
Wind Press
QNH
hPa
Press
MSL
hPa
Rain since
9am
mm
Dir  Spd
km/h
Gust
km/h
Spd
kts
Gust
kts
15/11:30pm 21.0 20.0 16.6 76 2.7 SW 17 26 9 14 1005.8 1005.7 0.0
15/11:00pm 22.8 21.6 16.2 66 4.0 SW 17 24 9 13 1005.8 1005.7 0.0
15/10:30pm 26.0 23.7 11.9 41 8.1 SW 15 24 8 13 1005.3 1005.2 0.0
15/10:00pm 26.5 25.1 12.2 41 8.3 NNE 11 17 6 9 1004.3 1004.2 0.0
15/09:30pm 27.6 25.3 11.9 37 9.1 NE 15 20 8 11 1004.6 1004.5 0.0
15/09:00pm 27.5 26.1 10.8 35 9.5 NE 9 15 5 8 1004.8 1004.7 0.0
15/08:30pm 27.8 26.2 10.2 33 9.9 ENE 9 11 5 6 1004.8 1004.7 0.0
15/08:00pm 26.6 26.2 13.0 43 8.0 ESE 7 9 4 5 1004.8 1004.7 0.0
15/07:30pm 28.4 26.0 9.9 31 10.4 E 13 19 7 10 1005.0 1004.9 0.0
15/07:00pm 28.7 26.8 10.6 32 10.3 E 11 19 6 10 1004.8 1004.7 0.0
15/06:30pm 28.8 26.3 12.2 35 9.7 ESE 17 22 9 12 1004.9 1004.8 0.0
15/06:00pm 29.1 26.5 13.1 37 9.5 ESE 19 28 10 15 1004.9 1004.8 0.0
15/05:30pm 29.1 26.4 12.9 37 9.6 ESE 19 28 10 15 1005.0 1004.9 0.0
15/05:00pm 28.6 26.4 14.4 41 8.6 ESE 19 26 10 14 1005.0 1004.9 0.0
15/04:30pm 29.1 26.3 13.3 37 9.4 SE 20 28 11 15 1005.2 1005.1 0.0
15/04:00pm 29.8 26.3 13.4 36 9.8 SE 24 32 13 17 1005.5 1005.4 0.0

Other Formats:

Comma delimited format used in spreadsheet applications
http://www.bom.gov.au/fwo/IDW60801/IDW60801.94638.axf

JavaScript Object Notation format (JSON) in row-major order
http://www.bom.gov.au/fwo/IDW60801/IDW60801.94638.json